sensor_id;sensor_type;location;lat;lon;timestamp;P1;durP1;ratioP1;P2;durP2;ratioP2
74519;SDS011;63002;48.134;-1.948;2023-11-25T06:02:20;1.92;;;0.47;;
74519;SDS011;63002;48.134;-1.948;2023-11-25T06:04:46;1.13;;;0.30;;
74519;SDS011;63002;48.134;-1.948;2023-11-25T06:07:11;2.03;;;0.43;;
74519;SDS011;63002;48.134;-1.948;2023-11-25T06:09:37;1.27;;;0.40;;
74519;SDS011;63002;48.134;-1.948;2023-11-25T06:12:03;1.35;;;0.40;;
74519;SDS011;63002;48.134;-1.948;2023-11-25T06:14:29;1.65;;;0.50;;
74519;SDS011;63002;48.134;-1.948;2023-11-25T06:16:57;1.15;;;0.38;;
74519;SDS011;63002;48.134;-1.948;2023-11-25T06:19:25;6.57;;;0.50;;
74519;SDS011;63002;48.134;-1.948;2023-11-25T06:21:52;0.68;;;0.30;;
74519;SDS011;63002;48.134;-1.948;2023-11-25T06:24:19;1.17;;;0.32;;
74519;SDS011;63002;48.134;-1.948;2023-11-25T06:26:45;1.00;;;0.30;;
74519;SDS011;63002;48.134;-1.948;2023-11-25T06:29:13;1.50;;;0.40;;
74519;SDS011;63002;48.134;-1.948;2023-11-25T06:31:38;1.50;;;0.30;;
74519;SDS011;63002;48.134;-1.948;2023-11-25T06:34:09;1.38;;;0.47;;
74519;SDS011;63002;48.134;-1.948;2023-11-25T06:36:35;1.30;;;0.40;;
74519;SDS011;63002;48.134;-1.948;2023-11-25T06:39:01;2.00;;;0.38;;
74519;SDS011;63002;48.134;-1.948;2023-11-25T06:41:27;1.10;;;0.40;;
74519;SDS011;63002;48.134;-1.948;2023-11-25T06:43:53;1.37;;;0.30;;
74519;SDS011;63002;48.134;-1.948;2023-11-25T06:46:19;0.88;;;0.28;;
74519;SDS011;63002;48.134;-1.948;2023-11-25T06:48:47;1.38;;;0.47;;
74519;SDS011;63002;48.134;-1.948;2023-11-25T06:51:13;1.55;;;0.50;;
74519;SDS011;63002;48.134;-1.948;2023-11-25T06:53:39;1.57;;;0.30;;
74519;SDS011;63002;48.134;-1.948;2023-11-25T06:56:08;1.17;;;0.40;;
74519;SDS011;63002;48.134;-1.948;2023-11-25T06:58:35;2.05;;;0.50;;
74519;SDS011;63002;48.134;-1.948;2023-11-25T07:01:01;3.45;;;0.52;;
74519;SDS011;63002;48.134;-1.948;2023-11-25T07:03:30;1.52;;;0.60;;
74519;SDS011;63002;48.134;-1.948;2023-11-25T07:05:56;2.67;;;0.40;;
74519;SDS011;63002;48.134;-1.948;2023-11-25T07:08:25;1.02;;;0.40;;
74519;SDS011;63002;48.134;-1.948;2023-11-25T07:10:50;2.00;;;0.40;;
74519;SDS011;63002;48.134;-1.948;2023-11-25T07:13:20;1.67;;;0.45;;
74519;SDS011;63002;48.134;-1.948;2023-11-25T07:15:46;2.42;;;0.40;;
74519;SDS011;63002;48.134;-1.948;2023-11-25T07:18:12;1.67;;;0.40;;
74519;SDS011;63002;48.134;-1.948;2023-11-25T07:20:39;2.17;;;0.40;;
74519;SDS011;63002;48.134;-1.948;2023-11-25T07:23:04;0.80;;;0.32;;
74519;SDS011;63002;48.134;-1.948;2023-11-25T07:25:30;1.27;;;0.30;;
74519;SDS011;63002;48.134;-1.948;2023-11-25T07:27:57;1.88;;;0.30;;
74519;SDS011;63002;48.134;-1.948;2023-11-25T07:30:23;0.90;;;0.25;;
74519;SDS011;63002;48.134;-1.948;2023-11-25T07:32:49;2.00;;;0.50;;
74519;SDS011;63002;48.134;-1.948;2023-11-25T07:35:14;4.15;;;0.40;;
74519;SDS011;63002;48.134;-1.948;2023-11-25T07:37:40;4.97;;;0.70;;
74519;SDS011;63002;48.134;-1.948;2023-11-25T07:40:06;6.70;;;0.88;;
74519;SDS011;63002;48.134;-1.948;2023-11-25T07:42:39;3.20;;;0.50;;
74519;SDS011;63002;48.134;-1.948;2023-11-25T07:45:08;3.47;;;0.85;;
74519;SDS011;63002;48.134;-1.948;2023-11-25T07:47:35;3.60;;;0.40;;
74519;SDS011;63002;48.134;-1.948;2023-11-25T07:50:01;7.45;;;2.22;;
74519;SDS011;63002;48.134;-1.948;2023-11-25T07:52:27;5.78;;;1.20;;
74519;SDS011;63002;48.134;-1.948;2023-11-25T07:54:53;3.53;;;0.70;;
74519;SDS011;63002;48.134;-1.948;2023-11-25T07:57:18;5.90;;;0.80;;
74519;SDS011;63002;48.134;-1.948;2023-11-25T07:59:44;7.57;;;0.80;;
74519;SDS011;63002;48.134;-1.948;2023-11-25T08:02:10;5.20;;;1.05;;
74519;SDS011;63002;48.134;-1.948;2023-11-25T08:04:35;11.33;;;1.13;;
74519;SDS011;63002;48.134;-1.948;2023-11-25T08:07:01;5.85;;;0.90;;
74519;SDS011;63002;48.134;-1.948;2023-11-25T08:09:27;5.90;;;0.98;;
74519;SDS011;63002;48.134;-1.948;2023-11-25T08:11:54;17.33;;;1.17;;
74519;SDS011;63002;48.134;-1.948;2023-11-25T08:14:20;5.15;;;0.88;;
74519;SDS011;63002;48.134;-1.948;2023-11-25T08:16:46;8.18;;;0.70;;
74519;SDS011;63002;48.134;-1.948;2023-11-25T08:19:14;5.93;;;0.73;;
74519;SDS011;63002;48.134;-1.948;2023-11-25T08:21:41;3.47;;;0.60;;
74519;SDS011;63002;48.134;-1.948;2023-11-25T08:24:07;4.22;;;0.70;;
74519;SDS011;63002;48.134;-1.948;2023-11-25T08:26:33;6.78;;;0.73;;
74519;SDS011;63002;48.134;-1.948;2023-11-25T08:28:59;4.57;;;1.27;;
74519;SDS011;63002;48.134;-1.948;2023-11-25T08:31:28;5.73;;;0.80;;
74519;SDS011;63002;48.134;-1.948;2023-11-25T08:33:54;3.95;;;0.90;;
74519;SDS011;63002;48.134;-1.948;2023-11-25T08:36:19;4.40;;;0.73;;
74519;SDS011;63002;48.134;-1.948;2023-11-25T08:38:45;5.90;;;1.00;;
74519;SDS011;63002;48.134;-1.948;2023-11-25T08:41:11;4.70;;;0.75;;
74519;SDS011;63002;48.134;-1.948;2023-11-25T08:43:40;4.30;;;0.77;;
74519;SDS011;63002;48.134;-1.948;2023-11-25T08:46:10;5.57;;;0.80;;
74519;SDS011;63002;48.134;-1.948;2023-11-25T08:48:37;10.73;;;1.50;;
74519;SDS011;63002;48.134;-1.948;2023-11-25T08:51:04;8.80;;;1.10;;
74519;SDS011;63002;48.134;-1.948;2023-11-25T08:53:31;7.82;;;1.30;;
74519;SDS011;63002;48.134;-1.948;2023-11-25T08:55:56;4.15;;;1.08;;
74519;SDS011;63002;48.134;-1.948;2023-11-25T08:58:27;8.40;;;1.30;;
74519;SDS011;63002;48.134;-1.948;2023-11-25T09:00:54;20.80;;;4.47;;
74519;SDS011;63002;48.134;-1.948;2023-11-25T09:03:20;40.70;;;9.33;;
74519;SDS011;63002;48.134;-1.948;2023-11-25T09:05:46;46.55;;;10.05;;
74519;SDS011;63002;48.134;-1.948;2023-11-25T09:08:13;37.55;;;9.02;;
74519;SDS011;63002;48.134;-1.948;2023-11-25T09:10:39;26.23;;;6.20;;
74519;SDS011;63002;48.134;-1.948;2023-11-25T09:13:05;21.17;;;5.72;;
74519;SDS011;63002;48.134;-1.948;2023-11-25T09:15:31;26.07;;;6.23;;
74519;SDS011;63002;48.134;-1.948;2023-11-25T09:17:56;18.30;;;4.00;;
74519;SDS011;63002;48.134;-1.948;2023-11-25T09:20:22;18.60;;;3.50;;
74519;SDS011;63002;48.134;-1.948;2023-11-25T09:22:49;17.08;;;3.40;;
74519;SDS011;63002;48.134;-1.948;2023-11-25T09:25:16;15.45;;;3.30;;
74519;SDS011;63002;48.134;-1.948;2023-11-25T09:27:42;19.77;;;2.93;;
74519;SDS011;63002;48.134;-1.948;2023-11-25T09:30:11;12.13;;;2.67;;
74519;SDS011;63002;48.134;-1.948;2023-11-25T09:32:38;16.90;;;2.72;;
74519;SDS011;63002;48.134;-1.948;2023-11-25T09:35:07;8.98;;;2.15;;
74519;SDS011;63002;48.134;-1.948;2023-11-25T09:37:35;11.02;;;2.60;;
74519;SDS011;63002;48.134;-1.948;2023-11-25T09:40:02;10.13;;;2.67;;
74519;SDS011;63002;48.134;-1.948;2023-11-25T09:42:31;8.85;;;2.20;;
74519;SDS011;63002;48.134;-1.948;2023-11-25T09:45:00;9.00;;;2.25;;
74519;SDS011;63002;48.134;-1.948;2023-11-25T09:47:27;9.52;;;2.60;;
74519;SDS011;63002;48.134;-1.948;2023-11-25T09:49:53;9.32;;;2.13;;
74519;SDS011;63002;48.134;-1.948;2023-11-25T09:52:19;9.43;;;1.90;;
74519;SDS011;63002;48.134;-1.948;2023-11-25T09:54:45;11.77;;;2.05;;
74519;SDS011;63002;48.134;-1.948;2023-11-25T09:57:15;7.72;;;1.83;;
74519;SDS011;63002;48.134;-1.948;2023-11-25T09:59:43;10.50;;;2.30;;
74519;SDS011;63002;48.134;-1.948;2023-11-25T10:02:09;9.37;;;1.77;;
74519;SDS011;63002;48.134;-1.948;2023-11-25T10:04:38;9.80;;;2.10;;
74519;SDS011;63002;48.134;-1.948;2023-11-25T10:07:04;9.90;;;1.98;;
74519;SDS011;63002;48.134;-1.948;2023-11-25T10:09:40;10.60;;;1.92;;
74519;SDS011;63002;48.134;-1.948;2023-11-25T10:12:07;9.48;;;1.92;;
74519;SDS011;63002;48.134;-1.948;2023-11-25T10:14:38;6.60;;;1.80;;
74519;SDS011;63002;48.134;-1.948;2023-11-25T10:19:42;7.68;;;1.80;;
74519;SDS011;63002;48.134;-1.948;2023-11-25T10:22:09;9.55;;;1.75;;
74519;SDS011;63002;48.134;-1.948;2023-11-25T10:24:49;9.77;;;1.92;;
74519;SDS011;63002;48.134;-1.948;2023-11-25T10:27:19;7.80;;;1.60;;
74519;SDS011;63002;48.134;-1.948;2023-11-25T10:29:47;6.88;;;1.55;;
74519;SDS011;63002;48.134;-1.948;2023-11-25T10:32:15;10.57;;;1.80;;
74519;SDS011;63002;48.134;-1.948;2023-11-25T10:34:41;9.43;;;1.77;;
74519;SDS011;63002;48.134;-1.948;2023-11-25T10:37:07;8.20;;;1.67;;
74519;SDS011;63002;48.134;-1.948;2023-11-25T10:39:34;7.43;;;1.33;;
74519;SDS011;63002;48.134;-1.948;2023-11-25T10:42:01;7.90;;;1.67;;
74519;SDS011;63002;48.134;-1.948;2023-11-25T10:44:29;6.50;;;1.52;;
74519;SDS011;63002;48.134;-1.948;2023-11-25T10:46:55;7.47;;;1.58;;
74519;SDS011;63002;48.134;-1.948;2023-11-25T10:49:22;7.85;;;1.27;;
74519;SDS011;63002;48.134;-1.948;2023-11-25T10:51:52;7.03;;;1.37;;
74519;SDS011;63002;48.134;-1.948;2023-11-25T10:54:23;8.10;;;1.50;;
74519;SDS011;63002;48.134;-1.948;2023-11-25T10:56:57;5.68;;;1.40;;
74519;SDS011;63002;48.134;-1.948;2023-11-25T10:59:24;11.73;;;1.65;;
74519;SDS011;63002;48.134;-1.948;2023-11-25T11:01:53;5.97;;;1.30;;
74519;SDS011;63002;48.134;-1.948;2023-11-25T11:04:31;6.40;;;1.20;;
74519;SDS011;63002;48.134;-1.948;2023-11-25T11:07:02;8.80;;;1.23;;
74519;SDS011;63002;48.134;-1.948;2023-11-25T11:09:32;6.03;;;1.20;;
74519;SDS011;63002;48.134;-1.948;2023-11-25T11:12:07;6.72;;;1.30;;
74519;SDS011;63002;48.134;-1.948;2023-11-25T11:14:43;5.90;;;1.23;;
74519;SDS011;63002;48.134;-1.948;2023-11-25T11:20:10;10.45;;;1.80;;
74519;SDS011;63002;48.134;-1.948;2023-11-25T11:22:41;5.80;;;1.23;;
74519;SDS011;63002;48.134;-1.948;2023-11-25T11:33:09;6.18;;;1.00;;
74519;SDS011;63002;48.134;-1.948;2023-11-25T11:35:39;7.30;;;1.60;;
74519;SDS011;63002;48.134;-1.948;2023-11-25T11:38:27;6.32;;;1.02;;
74519;SDS011;63002;48.134;-1.948;2023-11-25T11:44:02;5.00;;;1.05;;
74519;SDS011;63002;48.134;-1.948;2023-11-25T11:46:38;5.70;;;1.00;;
74519;SDS011;63002;48.134;-1.948;2023-11-25T11:49:12;5.45;;;1.05;;
74519;SDS011;63002;48.134;-1.948;2023-11-25T11:54:44;7.13;;;1.45;;
74519;SDS011;63002;48.134;-1.948;2023-11-25T11:57:10;5.80;;;1.17;;
74519;SDS011;63002;48.134;-1.948;2023-11-25T12:02:29;7.20;;;0.80;;
74519;SDS011;63002;48.134;-1.948;2023-11-25T12:05:18;5.18;;;1.08;;
74519;SDS011;63002;48.134;-1.948;2023-11-25T12:07:54;6.50;;;1.03;;
74519;SDS011;63002;48.134;-1.948;2023-11-25T12:10:26;5.22;;;1.27;;
74519;SDS011;63002;48.134;-1.948;2023-11-25T12:13:04;6.95;;;0.90;;
74519;SDS011;63002;48.134;-1.948;2023-11-25T12:15:31;8.00;;;1.20;;
74519;SDS011;63002;48.134;-1.948;2023-11-25T12:17:57;4.63;;;0.90;;
74519;SDS011;63002;48.134;-1.948;2023-11-25T12:20:27;5.20;;;0.83;;
74519;SDS011;63002;48.134;-1.948;2023-11-25T12:23:01;6.80;;;1.00;;
74519;SDS011;63002;48.134;-1.948;2023-11-25T12:25:35;4.95;;;1.23;;
74519;SDS011;63002;48.134;-1.948;2023-11-25T12:28:08;8.32;;;1.00;;
74519;SDS011;63002;48.134;-1.948;2023-11-25T12:30:39;4.88;;;1.00;;
74519;SDS011;63002;48.134;-1.948;2023-11-25T12:33:06;4.00;;;0.80;;
74519;SDS011;63002;48.134;-1.948;2023-11-25T12:38:48;6.00;;;0.90;;
74519;SDS011;63002;48.134;-1.948;2023-11-25T12:41:45;5.13;;;1.00;;
74519;SDS011;63002;48.134;-1.948;2023-11-25T12:44:14;5.50;;;1.20;;
74519;SDS011;63002;48.134;-1.948;2023-11-25T12:46:41;5.70;;;0.87;;
74519;SDS011;63002;48.134;-1.948;2023-11-25T12:49:29;9.20;;;1.00;;
74519;SDS011;63002;48.134;-1.948;2023-11-25T12:51:59;5.75;;;1.00;;
74519;SDS011;63002;48.134;-1.948;2023-11-25T12:54:41;6.57;;;1.00;;
74519;SDS011;63002;48.134;-1.948;2023-11-25T12:57:14;8.60;;;1.05;;
74519;SDS011;63002;48.134;-1.948;2023-11-25T12:59:44;6.20;;;1.07;;
74519;SDS011;63002;48.134;-1.948;2023-11-25T13:02:11;5.20;;;1.02;;
74519;SDS011;63002;48.134;-1.948;2023-11-25T13:04:44;7.82;;;1.10;;
74519;SDS011;63002;48.134;-1.948;2023-11-25T13:07:36;4.05;;;0.90;;
74519;SDS011;63002;48.134;-1.948;2023-11-25T13:10:13;4.35;;;0.80;;
74519;SDS011;63002;48.134;-1.948;2023-11-25T13:12:39;5.67;;;0.70;;
74519;SDS011;63002;48.134;-1.948;2023-11-25T13:15:15;9.10;;;0.93;;
74519;SDS011;63002;48.134;-1.948;2023-11-25T13:18:31;8.38;;;1.35;;
74519;SDS011;63002;48.134;-1.948;2023-11-25T13:20:39;5.90;;;0.85;;
74519;SDS011;63002;48.134;-1.948;2023-11-25T13:23:08;5.88;;;1.00;;
74519;SDS011;63002;48.134;-1.948;2023-11-25T13:25:47;4.13;;;0.80;;
74519;SDS011;63002;48.134;-1.948;2023-11-25T13:28:18;4.22;;;1.00;;
74519;SDS011;63002;48.134;-1.948;2023-11-25T13:30:44;4.43;;;0.90;;
74519;SDS011;63002;48.134;-1.948;2023-11-25T13:33:12;4.65;;;0.73;;
74519;SDS011;63002;48.134;-1.948;2023-11-25T13:35:40;4.35;;;0.75;;
74519;SDS011;63002;48.134;-1.948;2023-11-25T13:38:07;3.07;;;0.40;;
74519;SDS011;63002;48.134;-1.948;2023-11-25T13:40:34;3.67;;;0.82;;
74519;SDS011;63002;48.134;-1.948;2023-11-25T13:43:02;4.55;;;0.90;;
74519;SDS011;63002;48.134;-1.948;2023-11-25T13:45:32;6.32;;;0.98;;
74519;SDS011;63002;48.134;-1.948;2023-11-25T13:47:58;4.53;;;0.90;;
74519;SDS011;63002;48.134;-1.948;2023-11-25T13:50:29;3.15;;;0.65;;
74519;SDS011;63002;48.134;-1.948;2023-11-25T13:52:56;4.00;;;0.90;;
74519;SDS011;63002;48.134;-1.948;2023-11-25T13:55:22;3.08;;;0.70;;
74519;SDS011;63002;48.134;-1.948;2023-11-25T13:57:49;3.15;;;0.90;;
74519;SDS011;63002;48.134;-1.948;2023-11-25T14:00:16;4.15;;;0.93;;
74519;SDS011;63002;48.134;-1.948;2023-11-25T14:02:47;4.28;;;0.60;;
74519;SDS011;63002;48.134;-1.948;2023-11-25T14:05:14;4.93;;;0.80;;
74519;SDS011;63002;48.134;-1.948;2023-11-25T14:07:40;3.20;;;0.60;;
74519;SDS011;63002;48.134;-1.948;2023-11-25T14:10:10;2.90;;;0.63;;
74519;SDS011;63002;48.134;-1.948;2023-11-25T14:12:37;2.83;;;0.63;;
74519;SDS011;63002;48.134;-1.948;2023-11-25T14:15:04;4.80;;;0.63;;
74519;SDS011;63002;48.134;-1.948;2023-11-25T14:17:32;2.80;;;0.50;;
74519;SDS011;63002;48.134;-1.948;2023-11-25T14:20:01;3.60;;;0.63;;
74519;SDS011;63002;48.134;-1.948;2023-11-25T14:22:44;4.28;;;0.77;;
74519;SDS011;63002;48.134;-1.948;2023-11-25T14:25:14;2.23;;;0.70;;
74519;SDS011;63002;48.134;-1.948;2023-11-25T14:27:44;4.25;;;0.77;;
74519;SDS011;63002;48.134;-1.948;2023-11-25T14:30:11;2.17;;;0.57;;
74519;SDS011;63002;48.134;-1.948;2023-11-25T14:32:38;2.45;;;0.60;;
74519;SDS011;63002;48.134;-1.948;2023-11-25T14:35:04;2.72;;;0.60;;
74519;SDS011;63002;48.134;-1.948;2023-11-25T14:37:34;2.10;;;0.50;;
74519;SDS011;63002;48.134;-1.948;2023-11-25T14:40:00;5.03;;;0.50;;
74519;SDS011;63002;48.134;-1.948;2023-11-25T14:42:27;4.47;;;0.50;;
74519;SDS011;63002;48.134;-1.948;2023-11-25T14:44:53;5.00;;;0.50;;
74519;SDS011;63002;48.134;-1.948;2023-11-25T14:47:21;3.33;;;0.70;;
74519;SDS011;63002;48.134;-1.948;2023-11-25T14:49:48;2.93;;;0.60;;
74519;SDS011;63002;48.134;-1.948;2023-11-25T14:52:14;4.25;;;0.60;;
74519;SDS011;63002;48.134;-1.948;2023-11-25T14:54:40;3.42;;;0.63;;
74519;SDS011;63002;48.134;-1.948;2023-11-25T14:57:07;3.22;;;0.55;;
74519;SDS011;63002;48.134;-1.948;2023-11-25T14:59:33;7.47;;;0.63;;
74519;SDS011;63002;48.134;-1.948;2023-11-25T15:01:59;3.40;;;0.63;;
74519;SDS011;63002;48.134;-1.948;2023-11-25T15:04:26;2.72;;;0.85;;
74519;SDS011;63002;48.134;-1.948;2023-11-25T15:06:56;3.67;;;0.45;;
74519;SDS011;63002;48.134;-1.948;2023-11-25T15:09:22;3.13;;;0.70;;
74519;SDS011;63002;48.134;-1.948;2023-11-25T15:11:48;2.33;;;0.50;;
74519;SDS011;63002;48.134;-1.948;2023-11-25T15:14:14;2.70;;;0.70;;
74519;SDS011;63002;48.134;-1.948;2023-11-25T15:16:40;4.15;;;0.65;;
74519;SDS011;63002;48.134;-1.948;2023-11-25T15:19:06;3.97;;;0.65;;
74519;SDS011;63002;48.134;-1.948;2023-11-25T15:21:32;4.00;;;0.67;;
74519;SDS011;63002;48.134;-1.948;2023-11-25T15:23:58;6.82;;;0.60;;
74519;SDS011;63002;48.134;-1.948;2023-11-25T15:26:27;1.88;;;0.50;;
74519;SDS011;63002;48.134;-1.948;2023-11-25T15:28:52;3.00;;;0.50;;
74519;SDS011;63002;48.134;-1.948;2023-11-25T15:31:21;6.30;;;1.55;;
74519;SDS011;63002;48.134;-1.948;2023-11-25T15:33:47;5.10;;;0.85;;
74519;SDS011;63002;48.134;-1.948;2023-11-25T15:36:14;9.55;;;1.00;;
74519;SDS011;63002;48.134;-1.948;2023-11-25T15:38:40;3.13;;;0.70;;
74519;SDS011;63002;48.134;-1.948;2023-11-25T15:41:07;7.38;;;0.90;;
74519;SDS011;63002;48.134;-1.948;2023-11-25T15:43:35;8.55;;;0.80;;
74519;SDS011;63002;48.134;-1.948;2023-11-25T15:46:02;3.50;;;0.85;;
74519;SDS011;63002;48.134;-1.948;2023-11-25T15:48:29;3.77;;;0.73;;
74519;SDS011;63002;48.134;-1.948;2023-11-25T15:50:54;7.95;;;0.82;;
74519;SDS011;63002;48.134;-1.948;2023-11-25T15:53:20;4.03;;;0.77;;
74519;SDS011;63002;48.134;-1.948;2023-11-25T15:55:46;3.97;;;0.90;;
74519;SDS011;63002;48.134;-1.948;2023-11-25T15:58:12;5.38;;;1.08;;
74519;SDS011;63002;48.134;-1.948;2023-11-25T16:00:39;4.53;;;0.73;;
74519;SDS011;63002;48.134;-1.948;2023-11-25T16:03:06;2.65;;;0.60;;
74519;SDS011;63002;48.134;-1.948;2023-11-25T16:05:32;4.18;;;1.05;;
74519;SDS011;63002;48.134;-1.948;2023-11-25T16:07:58;4.63;;;1.23;;
74519;SDS011;63002;48.134;-1.948;2023-11-25T16:10:25;29.37;;;14.80;;
74519;SDS011;63002;48.134;-1.948;2023-11-25T16:12:51;21.30;;;11.18;;
74519;SDS011;63002;48.134;-1.948;2023-11-25T16:15:17;8.97;;;3.60;;
74519;SDS011;63002;48.134;-1.948;2023-11-25T16:17:42;13.18;;;2.95;;
74519;SDS011;63002;48.134;-1.948;2023-11-25T16:20:09;7.65;;;2.42;;
74519;SDS011;63002;48.134;-1.948;2023-11-25T16:22:36;9.10;;;1.90;;
74519;SDS011;63002;48.134;-1.948;2023-11-25T16:25:02;6.40;;;1.60;;
74519;SDS011;63002;48.134;-1.948;2023-11-25T16:27:30;6.00;;;2.00;;
74519;SDS011;63002;48.134;-1.948;2023-11-25T16:29:58;7.90;;;1.92;;
74519;SDS011;63002;48.134;-1.948;2023-11-25T16:32:23;9.60;;;2.00;;
74519;SDS011;63002;48.134;-1.948;2023-11-25T16:34:49;7.33;;;1.60;;
74519;SDS011;63002;48.134;-1.948;2023-11-25T16:37:15;6.68;;;1.70;;
74519;SDS011;63002;48.134;-1.948;2023-11-25T16:39:40;7.67;;;1.63;;
74519;SDS011;63002;48.134;-1.948;2023-11-25T16:42:07;7.03;;;1.75;;
74519;SDS011;63002;48.134;-1.948;2023-11-25T16:44:32;6.45;;;1.58;;
74519;SDS011;63002;48.134;-1.948;2023-11-25T16:46:58;5.80;;;1.63;;
74519;SDS011;63002;48.134;-1.948;2023-11-25T16:49:24;6.68;;;1.80;;
74519;SDS011;63002;48.134;-1.948;2023-11-25T16:51:50;7.68;;;1.90;;
74519;SDS011;63002;48.134;-1.948;2023-11-25T16:54:21;6.45;;;1.80;;
74519;SDS011;63002;48.134;-1.948;2023-11-25T16:56:47;5.83;;;1.70;;
74519;SDS011;63002;48.134;-1.948;2023-11-25T16:59:13;6.35;;;1.52;;
74519;SDS011;63002;48.134;-1.948;2023-11-25T17:01:39;8.57;;;1.53;;
74519;SDS011;63002;48.134;-1.948;2023-11-25T17:04:07;6.63;;;1.60;;
74519;SDS011;63002;48.134;-1.948;2023-11-25T17:06:33;6.15;;;1.67;;
74519;SDS011;63002;48.134;-1.948;2023-11-25T17:08:59;5.57;;;1.35;;
74519;SDS011;63002;48.134;-1.948;2023-11-25T17:11:25;7.53;;;1.33;;
74519;SDS011;63002;48.134;-1.948;2023-11-25T17:13:51;5.85;;;1.58;;
74519;SDS011;63002;48.134;-1.948;2023-11-25T17:16:17;6.27;;;1.47;;
74519;SDS011;63002;48.134;-1.948;2023-11-25T17:18:45;5.05;;;1.27;;
74519;SDS011;63002;48.134;-1.948;2023-11-25T17:21:11;4.82;;;1.60;;
74519;SDS011;63002;48.134;-1.948;2023-11-25T17:23:37;3.85;;;1.02;;
74519;SDS011;63002;48.134;-1.948;2023-11-25T17:26:03;6.63;;;1.57;;
74519;SDS011;63002;48.134;-1.948;2023-11-25T17:28:30;6.65;;;1.58;;
74519;SDS011;63002;48.134;-1.948;2023-11-25T17:30:57;5.47;;;1.50;;
74519;SDS011;63002;48.134;-1.948;2023-11-25T17:33:27;5.78;;;1.42;;
74519;SDS011;63002;48.134;-1.948;2023-11-25T17:35:52;5.90;;;1.40;;
74519;SDS011;63002;48.134;-1.948;2023-11-25T17:38:19;5.63;;;1.70;;
74519;SDS011;63002;48.134;-1.948;2023-11-25T17:40:45;4.38;;;1.45;;
74519;SDS011;63002;48.134;-1.948;2023-11-25T17:43:11;6.10;;;1.38;;
74519;SDS011;63002;48.134;-1.948;2023-11-25T17:45:37;4.40;;;1.23;;
74519;SDS011;63002;48.134;-1.948;2023-11-25T17:48:03;5.45;;;1.52;;
74519;SDS011;63002;48.134;-1.948;2023-11-25T17:50:30;4.70;;;1.33;;
74519;SDS011;63002;48.134;-1.948;2023-11-25T17:52:56;6.00;;;1.80;;
74519;SDS011;63002;48.134;-1.948;2023-11-25T17:55:21;5.93;;;1.52;;
74519;SDS011;63002;48.134;-1.948;2023-11-25T17:57:47;4.33;;;1.10;;
74519;SDS011;63002;48.134;-1.948;2023-11-25T18:00:13;5.93;;;1.17;;
74519;SDS011;63002;48.134;-1.948;2023-11-25T18:02:39;5.38;;;1.80;;
74519;SDS011;63002;48.134;-1.948;2023-11-25T18:05:05;8.18;;;1.77;;
74519;SDS011;63002;48.134;-1.948;2023-11-25T18:07:37;5.32;;;1.38;;
74519;SDS011;63002;48.134;-1.948;2023-11-25T18:10:05;10.73;;;4.85;;
74519;SDS011;63002;48.134;-1.948;2023-11-25T18:12:31;11.35;;;4.38;;
74519;SDS011;63002;48.134;-1.948;2023-11-25T18:14:57;8.20;;;2.85;;
74519;SDS011;63002;48.134;-1.948;2023-11-25T18:17:24;9.33;;;3.00;;
74519;SDS011;63002;48.134;-1.948;2023-11-25T18:19:50;10.13;;;3.72;;
74519;SDS011;63002;48.134;-1.948;2023-11-25T18:22:16;10.60;;;3.47;;
74519;SDS011;63002;48.134;-1.948;2023-11-25T18:24:42;12.15;;;3.45;;
74519;SDS011;63002;48.134;-1.948;2023-11-25T18:27:08;11.43;;;3.40;;
74519;SDS011;63002;48.134;-1.948;2023-11-25T18:29:34;10.63;;;3.65;;
74519;SDS011;63002;48.134;-1.948;2023-11-25T18:32:00;17.38;;;6.47;;
74519;SDS011;63002;48.134;-1.948;2023-11-25T18:34:26;24.20;;;7.88;;
74519;SDS011;63002;48.134;-1.948;2023-11-25T18:36:52;21.92;;;7.00;;
74519;SDS011;63002;48.134;-1.948;2023-11-25T18:39:18;17.50;;;6.72;;
74519;SDS011;63002;48.134;-1.948;2023-11-25T18:41:44;20.58;;;7.07;;
74519;SDS011;63002;48.134;-1.948;2023-11-25T18:44:10;18.52;;;7.47;;
74519;SDS011;63002;48.134;-1.948;2023-11-25T18:46:36;18.90;;;7.10;;
74519;SDS011;63002;48.134;-1.948;2023-11-25T18:49:04;19.85;;;7.47;;
74519;SDS011;63002;48.134;-1.948;2023-11-25T18:51:32;17.50;;;6.72;;
74519;SDS011;63002;48.134;-1.948;2023-11-25T18:53:58;19.70;;;7.07;;
74519;SDS011;63002;48.134;-1.948;2023-11-25T18:56:24;18.48;;;6.82;;
74519;SDS011;63002;48.134;-1.948;2023-11-25T18:58:50;18.40;;;7.57;;
74519;SDS011;63002;48.134;-1.948;2023-11-25T19:01:30;15.37;;;6.00;;
74519;SDS011;63002;48.134;-1.948;2023-11-25T19:03:58;13.55;;;5.43;;
74519;SDS011;63002;48.134;-1.948;2023-11-25T19:06:24;16.83;;;6.32;;
74519;SDS011;63002;48.134;-1.948;2023-11-25T19:08:50;15.33;;;6.43;;
74519;SDS011;63002;48.134;-1.948;2023-11-25T19:11:16;14.52;;;5.90;;
74519;SDS011;63002;48.134;-1.948;2023-11-25T19:13:42;15.85;;;6.50;;
74519;SDS011;63002;48.134;-1.948;2023-11-25T19:16:08;17.98;;;6.60;;
74519;SDS011;63002;48.134;-1.948;2023-11-25T19:18:34;15.10;;;5.73;;
74519;SDS011;63002;48.134;-1.948;2023-11-25T19:21:00;15.20;;;6.30;;
74519;SDS011;63002;48.134;-1.948;2023-11-25T19:23:27;15.25;;;5.70;;
74519;SDS011;63002;48.134;-1.948;2023-11-25T19:25:53;13.00;;;4.83;;
74519;SDS011;63002;48.134;-1.948;2023-11-25T19:28:18;11.95;;;4.93;;
74519;SDS011;63002;48.134;-1.948;2023-11-25T19:30:44;12.10;;;5.13;;
74519;SDS011;63002;48.134;-1.948;2023-11-25T19:33:10;14.90;;;4.95;;
74519;SDS011;63002;48.134;-1.948;2023-11-25T19:35:36;12.00;;;5.15;;
74519;SDS011;63002;48.134;-1.948;2023-11-25T19:38:02;13.13;;;4.75;;
74519;SDS011;63002;48.134;-1.948;2023-11-25T19:40:29;17.33;;;5.50;;
74519;SDS011;63002;48.134;-1.948;2023-11-25T19:42:55;15.37;;;4.77;;
74519;SDS011;63002;48.134;-1.948;2023-11-25T19:45:20;13.40;;;4.90;;
74519;SDS011;63002;48.134;-1.948;2023-11-25T19:47:46;11.67;;;4.60;;
74519;SDS011;63002;48.134;-1.948;2023-11-25T19:50:12;12.50;;;4.60;;
74519;SDS011;63002;48.134;-1.948;2023-11-25T19:52:39;11.10;;;4.20;;
74519;SDS011;63002;48.134;-1.948;2023-11-25T19:55:05;12.98;;;4.80;;
74519;SDS011;63002;48.134;-1.948;2023-11-25T19:57:31;14.35;;;4.22;;
74519;SDS011;63002;48.134;-1.948;2023-11-25T19:59:58;11.45;;;4.00;;
74519;SDS011;63002;48.134;-1.948;2023-11-25T20:02:24;11.03;;;3.80;;
74519;SDS011;63002;48.134;-1.948;2023-11-25T20:04:50;10.77;;;4.63;;
74519;SDS011;63002;48.134;-1.948;2023-11-25T20:07:15;11.97;;;3.73;;
74519;SDS011;63002;48.134;-1.948;2023-11-25T20:09:41;11.70;;;3.92;;
74519;SDS011;63002;48.134;-1.948;2023-11-25T20:12:07;9.88;;;3.95;;
74519;SDS011;63002;48.134;-1.948;2023-11-25T20:14:34;11.33;;;3.67;;
74519;SDS011;63002;48.134;-1.948;2023-11-25T20:17:01;13.48;;;3.63;;
74519;SDS011;63002;48.134;-1.948;2023-11-25T20:19:27;12.20;;;4.13;;
74519;SDS011;63002;48.134;-1.948;2023-11-25T20:21:55;10.98;;;3.35;;
74519;SDS011;63002;48.134;-1.948;2023-11-25T20:24:21;9.48;;;3.63;;
74519;SDS011;63002;48.134;-1.948;2023-11-25T20:26:47;9.00;;;3.50;;
74519;SDS011;63002;48.134;-1.948;2023-11-25T20:29:13;10.32;;;3.58;;
74519;SDS011;63002;48.134;-1.948;2023-11-25T20:31:38;11.88;;;3.65;;
74519;SDS011;63002;48.134;-1.948;2023-11-25T20:34:05;11.13;;;3.67;;
74519;SDS011;63002;48.134;-1.948;2023-11-25T20:36:31;8.98;;;3.25;;
74519;SDS011;63002;48.134;-1.948;2023-11-25T20:38:57;10.52;;;3.58;;
74519;SDS011;63002;48.134;-1.948;2023-11-25T20:41:23;10.90;;;3.33;;
74519;SDS011;63002;48.134;-1.948;2023-11-25T20:43:49;9.57;;;3.45;;
74519;SDS011;63002;48.134;-1.948;2023-11-25T20:46:15;10.15;;;3.08;;
74519;SDS011;63002;48.134;-1.948;2023-11-25T20:48:41;10.27;;;2.97;;
74519;SDS011;63002;48.134;-1.948;2023-11-25T20:51:07;10.02;;;3.70;;
74519;SDS011;63002;48.134;-1.948;2023-11-25T20:53:36;9.17;;;3.27;;
74519;SDS011;63002;48.134;-1.948;2023-11-25T20:56:04;11.32;;;2.80;;
74519;SDS011;63002;48.134;-1.948;2023-11-25T20:58:32;12.15;;;3.25;;
74519;SDS011;63002;48.134;-1.948;2023-11-25T21:01:00;10.20;;;3.10;;